createdAt,value
2023-01-21T00:00:26.213Z,14.30
2023-01-21T00:01:26.212Z,14.80
2023-01-21T00:02:26.260Z,14.70
2023-01-21T00:03:26.209Z,15.20
2023-01-21T00:04:26.150Z,14.60
2023-01-21T00:05:26.158Z,15.30
2023-01-21T00:06:26.164Z,15.40
2023-01-21T00:07:26.160Z,14.80
2023-01-21T00:08:26.161Z,13.30
2023-01-21T00:09:26.152Z,14.00
2023-01-21T00:10:26.101Z,14.20
2023-01-21T00:11:27.848Z,14.00
2023-01-21T00:12:26.077Z,13.40
2023-01-21T00:13:26.069Z,13.80
2023-01-21T00:14:26.054Z,14.50
2023-01-21T00:15:26.188Z,14.20
2023-01-21T00:16:26.061Z,13.20
2023-01-21T00:17:26.065Z,14.10
2023-01-21T00:18:26.029Z,13.90
2023-01-21T00:19:26.261Z,14.00
2023-01-21T00:20:26.003Z,12.80
2023-01-21T00:21:26.012Z,14.10
2023-01-21T00:22:25.985Z,14.10
2023-01-21T00:23:25.985Z,14.30
2023-01-21T00:24:25.954Z,13.10
2023-01-21T00:25:25.931Z,13.20
2023-01-21T00:26:25.970Z,13.50
2023-01-21T00:27:25.912Z,14.60
2023-01-21T00:28:25.917Z,14.00
2023-01-21T00:29:25.981Z,13.80
2023-01-21T00:30:25.890Z,14.20
2023-01-21T00:31:25.974Z,14.80
2023-01-21T00:32:25.885Z,14.50
2023-01-21T00:33:26.010Z,14.20
2023-01-21T00:34:25.884Z,14.60
2023-01-21T00:35:25.817Z,15.70
2023-01-21T00:36:25.959Z,14.90
2023-01-21T00:37:25.801Z,15.00
2023-01-21T00:38:25.821Z,14.80
2023-01-21T00:39:25.827Z,15.30
2023-01-21T00:40:25.780Z,14.70
2023-01-21T00:41:25.780Z,13.70
2023-01-21T00:42:25.836Z,14.60
2023-01-21T00:43:25.741Z,14.00
2023-01-21T00:44:25.862Z,14.20
2023-01-21T00:45:25.704Z,14.30
2023-01-21T00:46:25.744Z,14.40
2023-01-21T00:47:25.719Z,13.80
2023-01-21T00:48:25.984Z,13.90
2023-01-21T00:49:25.670Z,13.30
2023-01-21T00:50:25.705Z,13.30
2023-01-21T00:51:25.665Z,13.90
2023-01-21T00:52:25.651Z,13.90
2023-01-21T00:53:25.714Z,14.10
2023-01-21T00:54:25.614Z,13.50
2023-01-21T00:55:25.628Z,14.00
2023-01-21T00:56:25.674Z,14.80
2023-01-21T00:57:25.607Z,14.30
2023-01-21T00:58:25.586Z,14.30
2023-01-21T00:59:25.590Z,14.20
2023-01-21T01:00:25.564Z,14.60
2023-01-21T01:01:25.575Z,14.60
2023-01-21T01:02:25.664Z,14.40
2023-01-21T01:03:25.528Z,13.90
2023-01-21T01:04:25.510Z,14.60
2023-01-21T01:05:25.506Z,14.00
2023-01-21T01:06:25.566Z,13.40
2023-01-21T01:07:25.529Z,13.30
2023-01-21T01:08:25.479Z,13.60
2023-01-21T01:09:25.435Z,14.40
2023-01-21T01:10:25.530Z,14.60
2023-01-21T01:11:25.423Z,13.60
2023-01-21T01:12:25.435Z,14.70
2023-01-21T01:13:25.431Z,14.20
2023-01-21T01:14:25.424Z,14.30
2023-01-21T01:15:25.388Z,13.30
2023-01-21T01:16:25.481Z,14.10
2023-01-21T01:17:25.379Z,14.20
2023-01-21T01:18:25.363Z,14.00
2023-01-21T01:19:25.335Z,14.70
2023-01-21T01:20:25.408Z,14.20
2023-01-21T01:21:25.349Z,14.50
2023-01-21T01:22:25.335Z,14.20
2023-01-21T01:23:25.303Z,13.90
2023-01-21T01:24:25.322Z,14.00
2023-01-21T01:25:25.273Z,14.70
2023-01-21T01:26:25.370Z,13.90
2023-01-21T01:27:25.259Z,13.30
2023-01-21T01:28:25.252Z,13.60
2023-01-21T01:29:25.281Z,13.50
2023-01-21T01:30:25.276Z,13.70
2023-01-21T01:31:25.225Z,12.30
2023-01-21T01:32:25.215Z,12.00
2023-01-21T01:33:25.232Z,12.40
2023-01-21T01:34:25.197Z,13.40
2023-01-21T01:35:25.337Z,13.00
2023-01-21T01:36:25.204Z,12.40
2023-01-21T01:37:25.147Z,12.40
2023-01-21T01:38:25.143Z,12.30
2023-01-21T01:39:25.102Z,11.80
2023-01-21T01:40:25.112Z,12.10
2023-01-21T01:41:25.156Z,12.30
2023-01-21T01:42:25.082Z,12.00
2023-01-21T01:43:25.112Z,13.20
2023-01-21T01:44:25.053Z,12.50
2023-01-21T01:45:25.057Z,12.50
2023-01-21T01:46:25.113Z,12.70
2023-01-21T01:47:25.031Z,12.50
2023-01-21T01:48:25.073Z,12.80
2023-01-21T01:49:25.016Z,12.10
2023-01-21T01:50:25.011Z,12.80
2023-01-21T01:51:25.033Z,13.20
2023-01-21T01:52:24.995Z,13.20
2023-01-21T01:53:26.198Z,13.50
2023-01-21T01:54:24.977Z,12.60
2023-01-21T01:55:24.953Z,13.40
2023-01-21T01:56:24.946Z,13.70
2023-01-21T01:57:24.957Z,12.70
2023-01-21T01:58:24.899Z,12.10
2023-01-21T01:59:24.911Z,12.60
2023-01-21T02:00:24.883Z,14.10
2023-01-21T02:01:25.047Z,14.10
2023-01-21T02:02:24.855Z,13.70
2023-01-21T02:03:24.865Z,14.30
2023-01-21T02:04:24.856Z,14.20
2023-01-21T02:05:24.842Z,15.30
2023-01-21T02:06:24.810Z,15.50
2023-01-21T02:07:24.830Z,15.00
2023-01-21T02:08:24.813Z,15.30
2023-01-21T02:09:24.824Z,16.60
2023-01-21T02:10:24.778Z,15.80
2023-01-21T02:11:24.785Z,15.10
2023-01-21T02:12:24.804Z,15.70
2023-01-21T02:13:24.754Z,16.60
2023-01-21T02:14:24.768Z,16.00
2023-01-21T02:15:24.711Z,15.60
2023-01-21T02:16:24.759Z,16.80
2023-01-21T02:17:24.721Z,17.00
2023-01-21T02:18:24.686Z,17.70
2023-01-21T02:19:24.716Z,15.80
2023-01-21T02:20:24.944Z,16.50
2023-01-21T02:21:24.694Z,16.80
2023-01-21T02:22:24.772Z,17.60
2023-01-21T02:23:24.656Z,16.70
2023-01-21T02:24:24.639Z,16.60
2023-01-21T02:25:24.655Z,17.20
2023-01-21T02:26:24.614Z,18.10
2023-01-21T02:27:30.386Z,17.90
2023-01-21T02:28:25.597Z,17.40
2023-01-21T02:29:24.589Z,17.10
2023-01-21T02:30:24.570Z,17.60
2023-01-21T02:31:24.572Z,17.20
2023-01-21T02:32:24.596Z,16.80
2023-01-21T02:33:24.547Z,16.00
2023-01-21T02:34:24.521Z,17.00
2023-01-21T02:35:24.510Z,17.20
2023-01-21T02:36:24.508Z,16.70
2023-01-21T02:37:24.482Z,16.70
2023-01-21T02:38:24.532Z,17.60
2023-01-21T02:39:24.470Z,17.60
2023-01-21T02:40:24.464Z,17.50
2023-01-21T02:41:24.446Z,16.80
2023-01-21T02:42:24.485Z,17.40
2023-01-21T02:43:24.421Z,17.30
2023-01-21T02:44:24.394Z,17.70
2023-01-21T02:45:24.420Z,17.20
2023-01-21T02:46:24.414Z,16.30
2023-01-21T02:47:24.371Z,17.80
2023-01-21T02:48:24.357Z,17.30
2023-01-21T02:49:24.373Z,17.70
2023-01-21T02:50:24.362Z,17.60
2023-01-21T02:51:24.344Z,17.40
2023-01-21T02:52:24.332Z,17.10
2023-01-21T02:53:24.338Z,17.50
2023-01-21T02:54:24.300Z,17.40
2023-01-21T02:55:24.312Z,17.00
2023-01-21T02:56:24.293Z,17.50
2023-01-21T02:57:24.279Z,17.10
2023-01-21T02:58:24.253Z,17.50
2023-01-21T02:59:24.248Z,17.20
2023-01-21T03:00:24.272Z,16.60
2023-01-21T03:01:24.227Z,17.00
2023-01-21T03:02:24.231Z,17.60
2023-01-21T03:03:24.207Z,16.70
2023-01-21T03:04:24.191Z,16.70
2023-01-21T03:05:24.190Z,17.10
2023-01-21T03:06:24.186Z,17.40
2023-01-21T03:07:24.152Z,16.80
2023-01-21T03:08:24.162Z,16.50
2023-01-21T03:09:24.169Z,16.60
2023-01-21T03:10:24.155Z,16.50
2023-01-21T03:11:24.258Z,17.10
2023-01-21T03:12:24.112Z,17.00
2023-01-21T03:13:24.100Z,16.00
2023-01-21T03:14:24.078Z,17.40
2023-01-21T03:15:24.096Z,17.20
2023-01-21T03:16:24.131Z,17.30
2023-01-21T03:17:24.034Z,16.70
2023-01-21T03:18:24.067Z,18.00
2023-01-21T03:19:24.039Z,18.70
2023-01-21T03:20:23.993Z,17.70
2023-01-21T03:21:24.029Z,17.70
2023-01-21T03:22:23.979Z,17.70
2023-01-21T03:23:23.972Z,18.40
2023-01-21T03:24:23.984Z,17.80
2023-01-21T03:25:23.968Z,17.80
2023-01-21T03:26:23.955Z,18.80
2023-01-21T03:27:24.029Z,18.00
2023-01-21T03:28:24.667Z,19.30
2023-01-21T03:29:23.929Z,18.10
2023-01-21T03:30:23.905Z,18.40
2023-01-21T03:31:23.997Z,19.50
2023-01-21T03:32:23.906Z,19.20
2023-01-21T03:33:23.895Z,20.20
2023-01-21T03:34:23.867Z,20.10
2023-01-21T03:35:23.846Z,20.20
2023-01-21T03:36:23.870Z,20.00
2023-01-21T03:37:23.845Z,19.90
2023-01-21T03:38:23.856Z,19.00
2023-01-21T03:39:23.830Z,19.20
2023-01-21T03:40:23.786Z,18.70
2023-01-21T03:41:23.795Z,19.80
2023-01-21T03:42:23.788Z,18.50
2023-01-21T03:43:23.762Z,17.50
2023-01-21T03:44:23.786Z,18.60
2023-01-21T03:45:23.786Z,18.90
2023-01-21T03:46:23.747Z,18.00
2023-01-21T03:47:23.746Z,18.00
2023-01-21T03:48:23.682Z,17.60
2023-01-21T03:49:23.694Z,17.60
2023-01-21T03:50:23.724Z,17.30
2023-01-21T03:51:23.660Z,16.90
2023-01-21T03:52:23.648Z,17.30
2023-01-21T03:53:23.646Z,17.20
2023-01-21T03:54:23.717Z,18.80
2023-01-21T03:55:23.625Z,16.60
2023-01-21T03:56:23.625Z,16.80
2023-01-21T03:57:23.620Z,17.00
2023-01-21T03:58:23.675Z,16.80
2023-01-21T03:59:23.609Z,17.10
2023-01-21T04:00:23.597Z,16.30
2023-01-21T04:01:23.587Z,16.80
2023-01-21T04:02:23.625Z,17.30
2023-01-21T04:03:23.551Z,17.10
2023-01-21T04:04:23.576Z,16.70
2023-01-21T04:05:23.575Z,15.80
2023-01-21T04:06:23.520Z,16.50
2023-01-21T04:07:23.543Z,17.10
2023-01-21T04:08:23.950Z,17.00
2023-01-21T04:09:23.475Z,16.90
2023-01-21T04:10:23.469Z,16.50
2023-01-21T04:11:23.466Z,17.90
2023-01-21T04:12:24.175Z,18.10
2023-01-21T04:13:23.442Z,17.30
2023-01-21T04:14:23.425Z,16.80
2023-01-21T04:15:23.417Z,18.80
2023-01-21T04:16:23.385Z,18.00
2023-01-21T04:17:23.407Z,18.80
2023-01-21T04:18:23.416Z,18.90
2023-01-21T04:19:23.411Z,18.30
2023-01-21T04:20:23.351Z,18.50
2023-01-21T04:21:23.368Z,18.40
2023-01-21T04:22:23.350Z,18.50
2023-01-21T04:23:23.310Z,18.20
2023-01-21T04:24:23.321Z,18.40
2023-01-21T04:25:23.289Z,18.30
2023-01-21T04:26:23.537Z,18.90
2023-01-21T04:27:23.273Z,18.30
2023-01-21T04:28:23.295Z,18.60
2023-01-21T04:29:23.248Z,17.40
2023-01-21T04:30:23.281Z,18.20
2023-01-21T04:31:23.295Z,18.70
2023-01-21T04:32:23.224Z,18.00
2023-01-21T04:33:23.205Z,17.60
2023-01-21T04:34:23.193Z,18.40
2023-01-21T04:35:23.192Z,18.20
2023-01-21T04:36:23.185Z,19.30
2023-01-21T04:37:23.177Z,18.80
2023-01-21T04:38:23.149Z,17.00
2023-01-21T04:39:23.144Z,19.20
2023-01-21T04:40:23.167Z,17.90
2023-01-21T04:41:25.317Z,17.70
2023-01-21T04:42:23.111Z,18.40
2023-01-21T04:43:23.113Z,18.30
2023-01-21T04:44:23.087Z,18.50
2023-01-21T04:45:23.061Z,17.60
2023-01-21T04:46:23.060Z,17.80
2023-01-21T04:47:23.046Z,18.90
2023-01-21T04:48:23.081Z,18.60
2023-01-21T04:49:23.038Z,17.10
2023-01-21T04:50:23.028Z,17.00
2023-01-21T04:51:23.042Z,17.70
2023-01-21T04:52:23.023Z,18.10
2023-01-21T04:53:23.024Z,16.60
2023-01-21T04:54:22.967Z,17.30
2023-01-21T04:55:24.861Z,17.20
2023-01-21T04:56:22.955Z,18.90
2023-01-21T04:57:22.928Z,17.70
2023-01-21T04:58:22.946Z,17.10
2023-01-21T04:59:22.931Z,16.40
2023-01-21T05:00:22.896Z,17.10
2023-01-21T05:01:22.941Z,17.00
2023-01-21T05:02:22.976Z,16.00
2023-01-21T05:03:22.862Z,17.30
2023-01-21T05:04:22.894Z,17.90
2023-01-21T05:05:22.859Z,17.80
2023-01-21T05:06:22.880Z,15.50
2023-01-21T05:07:22.819Z,16.20
2023-01-21T05:08:22.823Z,16.70
2023-01-21T05:09:22.833Z,16.80
2023-01-21T05:10:22.815Z,16.70
2023-01-21T05:11:22.799Z,16.30
2023-01-21T05:12:22.808Z,15.90
2023-01-21T05:13:22.795Z,16.60
2023-01-21T05:14:22.775Z,16.90
2023-01-21T05:15:22.755Z,17.40
2023-01-21T05:16:22.792Z,16.70
2023-01-21T05:17:22.732Z,16.70
2023-01-21T05:18:22.734Z,18.70
2023-01-21T05:19:22.704Z,18.30
2023-01-21T05:20:22.715Z,17.60
2023-01-21T05:21:22.681Z,17.90
2023-01-21T05:22:22.670Z,18.90
2023-01-21T05:23:22.666Z,18.40
2023-01-21T05:24:22.687Z,18.30
2023-01-21T05:25:22.654Z,17.20
2023-01-21T05:26:22.618Z,17.80
2023-01-21T05:27:22.634Z,19.40
2023-01-21T05:28:22.617Z,17.20
2023-01-21T05:29:22.647Z,18.00
2023-01-21T05:30:22.596Z,17.50
2023-01-21T05:31:22.671Z,16.40
2023-01-21T05:32:22.559Z,16.80
2023-01-21T05:33:22.547Z,17.50
2023-01-21T05:34:22.536Z,16.40
2023-01-21T05:35:22.513Z,17.00
2023-01-21T05:36:22.533Z,17.50
2023-01-21T05:37:22.511Z,16.80
2023-01-21T05:38:22.483Z,17.60
2023-01-21T05:39:22.519Z,17.10
2023-01-21T05:40:22.478Z,18.20
2023-01-21T05:41:22.446Z,18.10
2023-01-21T05:42:22.458Z,17.50
2023-01-21T05:43:22.434Z,17.30
2023-01-21T05:44:22.424Z,16.80
2023-01-21T05:45:22.439Z,18.20
2023-01-21T05:46:22.434Z,17.30
2023-01-21T05:47:22.396Z,17.90
2023-01-21T05:48:22.372Z,17.90
2023-01-21T05:49:22.356Z,18.40
2023-01-21T05:50:22.372Z,18.10
2023-01-21T05:51:22.385Z,17.50
2023-01-21T05:52:22.397Z,19.20
2023-01-21T05:53:22.347Z,18.10
2023-01-21T05:54:22.325Z,18.80
2023-01-21T05:55:22.315Z,18.00
2023-01-21T05:56:22.295Z,18.40
2023-01-21T05:57:22.283Z,18.60
2023-01-21T05:58:22.298Z,18.20
2023-01-21T05:59:22.263Z,17.60
2023-01-21T06:00:22.267Z,18.50
2023-01-21T06:01:22.255Z,18.60
2023-01-21T06:02:22.290Z,18.50
2023-01-21T06:03:22.261Z,17.50
2023-01-21T06:04:23.991Z,18.10
2023-01-21T06:05:22.213Z,18.20
2023-01-21T06:06:22.200Z,19.80
2023-01-21T06:07:22.198Z,20.50
2023-01-21T06:08:22.206Z,20.20
2023-01-21T06:09:22.155Z,19.00
2023-01-21T06:10:22.151Z,19.80
2023-01-21T06:11:22.125Z,20.80
2023-01-21T06:12:24.523Z,20.50
2023-01-21T06:13:22.119Z,19.90
2023-01-21T06:14:22.119Z,20.00
2023-01-21T06:15:22.116Z,20.90
2023-01-21T06:16:22.094Z,19.80
2023-01-21T06:17:22.079Z,19.80
2023-01-21T06:18:22.081Z,18.60
2023-01-21T06:19:22.029Z,20.70
2023-01-21T06:20:22.072Z,18.70
2023-01-21T06:21:22.006Z,19.00
2023-01-21T06:22:22.014Z,18.30
2023-01-21T06:23:21.989Z,18.20
2023-01-21T06:24:21.999Z,19.30
2023-01-21T06:25:22.049Z,18.00
2023-01-21T06:26:21.961Z,19.10
2023-01-21T06:27:21.959Z,18.20
2023-01-21T06:28:21.974Z,18.50
2023-01-21T06:29:21.929Z,18.30
2023-01-21T06:30:21.926Z,18.00
2023-01-21T06:31:22.024Z,18.20
2023-01-21T06:32:21.893Z,17.00
2023-01-21T06:33:21.888Z,17.60
2023-01-21T06:34:21.878Z,18.60
2023-01-21T06:35:21.853Z,18.30
2023-01-21T06:36:21.862Z,18.60
2023-01-21T06:37:21.855Z,17.80
2023-01-21T06:38:21.870Z,16.90
2023-01-21T06:39:21.830Z,18.80
2023-01-21T06:40:21.813Z,18.20
2023-01-21T06:41:21.822Z,16.90
2023-01-21T06:42:21.787Z,17.70
2023-01-21T06:43:21.789Z,19.10
2023-01-21T06:44:21.762Z,18.40
2023-01-21T06:45:21.779Z,17.20
2023-01-21T06:46:21.791Z,16.60
2023-01-21T06:47:21.730Z,16.80
2023-01-21T06:48:21.726Z,18.30
2023-01-21T06:49:21.887Z,18.80
2023-01-21T06:50:21.699Z,18.40
2023-01-21T06:51:21.769Z,20.00
2023-01-21T06:52:21.711Z,19.10
2023-01-21T06:53:21.661Z,20.10
2023-01-21T06:54:21.681Z,19.70
2023-01-21T06:55:21.646Z,19.40
2023-01-21T06:56:21.648Z,20.40
2023-01-21T06:57:21.642Z,19.90
2023-01-21T06:58:21.628Z,20.20
2023-01-21T06:59:21.585Z,18.20
2023-01-21T07:00:21.659Z,18.90
2023-01-21T07:01:21.618Z,18.60
2023-01-21T07:02:21.598Z,19.20
2023-01-21T07:03:21.571Z,18.70
2023-01-21T07:04:21.568Z,18.10
2023-01-21T07:05:21.542Z,18.00
2023-01-21T07:06:21.529Z,18.30
2023-01-21T07:07:21.517Z,18.80
2023-01-21T07:08:21.537Z,18.10
2023-01-21T07:09:21.504Z,19.10
2023-01-21T07:10:21.487Z,19.50
2023-01-21T07:11:21.481Z,19.60
2023-01-21T07:12:21.455Z,19.20
2023-01-21T07:13:21.476Z,19.40
2023-01-21T07:14:21.515Z,19.80
2023-01-21T07:15:21.426Z,19.60
2023-01-21T07:16:21.451Z,19.50
2023-01-21T07:17:21.427Z,19.10
2023-01-21T07:18:21.382Z,19.70
2023-01-21T07:19:21.377Z,20.20
2023-01-21T07:20:21.399Z,19.80
2023-01-21T07:21:21.346Z,18.80
2023-01-21T07:22:21.352Z,19.80
2023-01-21T07:23:21.330Z,20.30
2023-01-21T07:24:21.340Z,19.40
2023-01-21T07:25:22.017Z,19.00
2023-01-21T07:26:21.328Z,19.10
2023-01-21T07:27:21.324Z,19.90
2023-01-21T07:28:21.300Z,19.90
2023-01-21T07:29:21.291Z,18.80
2023-01-21T07:30:21.245Z,19.00
2023-01-21T07:31:21.425Z,19.50
2023-01-21T07:32:21.243Z,18.40
2023-01-21T07:33:21.222Z,18.20
2023-01-21T07:34:21.237Z,19.00
2023-01-21T07:35:21.239Z,19.40
2023-01-21T07:36:21.192Z,19.80
2023-01-21T07:37:21.253Z,18.80
2023-01-21T07:38:21.163Z,19.30
2023-01-21T07:39:21.182Z,19.30
2023-01-21T07:40:21.153Z,19.40
2023-01-21T07:41:21.177Z,18.30
2023-01-21T07:42:21.131Z,18.10
2023-01-21T07:43:21.122Z,19.20
2023-01-21T07:44:21.111Z,18.60
2023-01-21T07:45:21.110Z,19.80
2023-01-21T07:46:21.270Z,18.50
2023-01-21T07:47:21.077Z,18.60
2023-01-21T07:48:21.088Z,19.90
2023-01-21T07:49:21.071Z,20.40
2023-01-21T07:50:21.086Z,19.50
2023-01-21T07:51:21.056Z,20.60
2023-01-21T07:52:21.046Z,19.50
2023-01-21T07:53:21.019Z,20.00
2023-01-21T07:54:21.006Z,19.70
2023-01-21T07:55:20.999Z,20.60
2023-01-21T07:56:21.000Z,21.10
2023-01-21T07:57:21.011Z,19.20
2023-01-21T07:58:20.963Z,20.10
2023-01-21T07:59:20.944Z,20.10
2023-01-21T08:00:20.933Z,20.00
2023-01-21T08:01:22.261Z,19.80
2023-01-21T08:02:21.018Z,19.20
2023-01-21T08:03:20.911Z,19.80
2023-01-21T08:04:20.887Z,20.60
2023-01-21T08:05:20.873Z,21.10
2023-01-21T08:06:20.884Z,21.40
2023-01-21T08:07:20.842Z,19.80
2023-01-21T08:08:20.853Z,20.40
2023-01-21T08:09:20.851Z,20.90
2023-01-21T08:10:20.837Z,22.60
2023-01-21T08:11:20.826Z,20.10
2023-01-21T08:12:20.842Z,21.50
2023-01-21T08:13:20.815Z,21.00
2023-01-21T08:14:20.790Z,22.40
2023-01-21T08:15:20.748Z,22.50
2023-01-21T08:16:20.862Z,21.30
2023-01-21T08:17:20.751Z,22.60
2023-01-21T08:18:20.751Z,22.40
2023-01-21T08:19:20.723Z,22.70
2023-01-21T08:20:20.721Z,21.90
2023-01-21T08:21:20.700Z,22.40
2023-01-21T08:22:20.694Z,22.70
2023-01-21T08:23:20.897Z,22.90
2023-01-21T08:24:20.689Z,22.90
2023-01-21T08:25:20.646Z,22.40
2023-01-21T08:26:20.693Z,23.50
2023-01-21T08:27:20.610Z,22.20
2023-01-21T08:28:20.619Z,23.50
2023-01-21T08:29:20.624Z,21.40
2023-01-21T08:30:20.616Z,20.80
2023-01-21T08:31:20.584Z,21.40
2023-01-21T08:32:20.583Z,21.70
2023-01-21T08:33:20.564Z,22.10
2023-01-21T08:34:20.619Z,21.60
2023-01-21T08:35:28.840Z,21.60
2023-01-21T08:36:27.599Z,20.70
2023-01-21T08:37:20.543Z,21.30
2023-01-21T08:38:20.513Z,21.40
2023-01-21T08:39:20.531Z,20.90
2023-01-21T08:40:28.719Z,21.10
2023-01-21T08:41:28.518Z,21.60
2023-01-21T08:42:20.454Z,20.90
2023-01-21T08:43:20.474Z,20.90
2023-01-21T08:44:20.433Z,20.70
2023-01-21T08:45:20.769Z,22.30
2023-01-21T08:46:20.418Z,21.70
2023-01-21T08:47:20.457Z,22.60
2023-01-21T08:48:20.686Z,20.70
2023-01-21T08:49:20.459Z,21.10
2023-01-21T08:50:20.393Z,20.70
2023-01-21T08:51:20.474Z,21.60
2023-01-21T08:52:20.404Z,21.00
2023-01-21T08:53:20.393Z,20.90
2023-01-21T08:54:20.377Z,20.60
2023-01-21T08:55:20.354Z,21.90
2023-01-21T08:56:20.308Z,22.20
2023-01-21T08:57:20.312Z,21.90
2023-01-21T08:58:20.333Z,20.20
2023-01-21T08:59:20.279Z,21.20
2023-01-21T09:00:20.270Z,20.80
2023-01-21T09:01:20.327Z,21.30
2023-01-21T09:02:20.348Z,21.60
2023-01-21T09:03:20.254Z,21.50
2023-01-21T09:04:20.268Z,21.10
2023-01-21T09:05:20.337Z,22.50
2023-01-21T09:06:20.225Z,22.10
2023-01-21T09:07:20.186Z,23.20
2023-01-21T09:08:20.186Z,23.20
2023-01-21T09:09:20.196Z,23.00
2023-01-21T09:10:20.166Z,23.40
2023-01-21T09:11:20.179Z,24.00
2023-01-21T09:12:20.183Z,22.70
2023-01-21T09:13:20.157Z,21.50
2023-01-21T09:14:20.157Z,21.40
2023-01-21T09:15:20.112Z,22.20
2023-01-21T09:16:20.182Z,22.00
2023-01-21T09:17:20.117Z,22.80
2023-01-21T09:18:20.091Z,21.10
2023-01-21T09:19:20.123Z,22.70
2023-01-21T09:20:20.121Z,22.70
2023-01-21T09:21:20.041Z,22.60
2023-01-21T09:22:20.033Z,22.40
2023-01-21T09:23:20.071Z,21.50
2023-01-21T09:24:20.024Z,23.10
2023-01-21T09:25:23.090Z,22.10
2023-01-21T09:26:20.050Z,21.70
2023-01-21T09:27:20.018Z,22.60
2023-01-21T09:28:20.005Z,23.20
2023-01-21T09:29:19.974Z,24.00
2023-01-21T09:30:19.962Z,23.50
2023-01-21T09:31:19.984Z,23.40
2023-01-21T09:32:19.927Z,22.10
2023-01-21T09:33:19.907Z,22.90
2023-01-21T09:34:19.925Z,23.40
2023-01-21T09:35:19.881Z,23.20
2023-01-21T09:36:20.594Z,22.90
2023-01-21T09:37:19.934Z,24.50
2023-01-21T09:38:19.913Z,24.30
2023-01-21T09:39:19.935Z,24.40
2023-01-21T09:40:19.840Z,23.10
2023-01-21T09:41:19.854Z,23.20
2023-01-21T09:42:19.891Z,24.00
2023-01-21T09:43:19.831Z,24.10
2023-01-21T09:44:19.815Z,23.20
2023-01-21T09:45:19.809Z,22.60
2023-01-21T09:46:19.800Z,22.10
2023-01-21T09:47:19.890Z,23.20
2023-01-21T09:48:19.782Z,23.40
2023-01-21T09:49:19.762Z,22.80
2023-01-21T09:50:19.738Z,22.50
2023-01-21T09:51:19.772Z,22.90
2023-01-21T09:52:19.704Z,22.00
2023-01-21T09:53:19.712Z,22.30
2023-01-21T09:54:19.707Z,23.00
2023-01-21T09:55:19.985Z,22.40
2023-01-21T09:56:19.677Z,23.90
2023-01-21T09:57:19.664Z,22.80
2023-01-21T09:58:19.672Z,23.00
2023-01-21T09:59:21.084Z,21.80
2023-01-21T10:00:19.714Z,23.50
2023-01-21T10:01:19.679Z,22.50
2023-01-21T10:02:19.593Z,23.40
2023-01-21T10:03:19.616Z,20.90
2023-01-21T10:04:19.583Z,22.60
2023-01-21T10:05:19.620Z,21.80
2023-01-21T10:06:19.582Z,22.20
2023-01-21T10:07:19.547Z,22.50
2023-01-21T10:08:19.549Z,24.10
2023-01-21T10:09:19.517Z,23.40
2023-01-21T10:10:19.493Z,22.10
2023-01-21T10:11:19.499Z,22.90
2023-01-21T10:12:19.502Z,23.00
2023-01-21T10:13:19.496Z,21.20
2023-01-21T10:14:19.511Z,21.70
2023-01-21T10:15:19.679Z,23.20
2023-01-21T10:16:19.525Z,22.20
2023-01-21T10:17:19.435Z,22.60
2023-01-21T10:18:19.425Z,21.90
2023-01-21T10:19:19.426Z,20.90
2023-01-21T10:20:19.439Z,22.90
2023-01-21T10:21:19.584Z,23.30
2023-01-21T10:22:19.417Z,22.40
2023-01-21T10:23:19.448Z,19.20
2023-01-21T10:24:19.367Z,19.00
2023-01-21T10:25:19.520Z,19.30
2023-01-21T10:26:19.320Z,20.50
2023-01-21T10:27:19.395Z,19.10
2023-01-21T10:28:19.345Z,18.70
2023-01-21T10:29:19.337Z,18.40
2023-01-21T10:30:19.315Z,18.50
2023-01-21T10:31:19.431Z,19.40
2023-01-21T10:32:19.278Z,19.40
2023-01-21T10:33:19.314Z,18.30
2023-01-21T10:34:19.350Z,19.50
2023-01-21T10:35:19.972Z,18.50
2023-01-21T10:36:19.241Z,19.00
2023-01-21T10:37:19.279Z,18.50
2023-01-21T10:38:19.214Z,18.50
2023-01-21T10:39:19.184Z,18.20
2023-01-21T10:40:19.185Z,18.70
2023-01-21T10:41:19.190Z,19.00
2023-01-21T10:42:19.191Z,18.70
2023-01-21T10:43:19.213Z,18.90
2023-01-21T10:44:19.161Z,18.90
2023-01-21T10:45:19.440Z,18.80
2023-01-21T10:46:19.176Z,18.60
2023-01-21T10:47:19.176Z,18.80
2023-01-21T10:48:19.326Z,18.10
2023-01-21T10:49:19.122Z,17.60
2023-01-21T10:50:19.097Z,17.10
2023-01-21T10:51:19.132Z,18.10
2023-01-21T10:52:19.073Z,18.40
2023-01-21T10:53:19.055Z,16.90
2023-01-21T10:54:20.437Z,18.70
2023-01-21T10:55:19.347Z,18.20
2023-01-21T10:56:19.040Z,19.40
2023-01-21T10:57:19.021Z,18.00
2023-01-21T10:58:19.011Z,18.80
2023-01-21T10:59:19.076Z,18.80
2023-01-21T11:00:19.142Z,18.50
2023-01-21T11:01:18.951Z,19.50
2023-01-21T11:02:19.220Z,19.10
2023-01-21T11:03:18.982Z,19.00
2023-01-21T11:04:18.911Z,18.80
2023-01-21T11:05:19.133Z,19.20
2023-01-21T11:06:18.905Z,18.60
2023-01-21T11:07:18.917Z,18.70
2023-01-21T11:08:18.885Z,19.60
2023-01-21T11:09:18.877Z,18.70
2023-01-21T11:10:18.864Z,19.70
2023-01-21T11:11:19.045Z,18.90
2023-01-21T11:12:18.854Z,18.10
2023-01-21T11:13:18.851Z,18.90
2023-01-21T11:14:21.166Z,18.90
2023-01-21T11:15:19.213Z,18.50
2023-01-21T11:16:18.847Z,18.90
2023-01-21T11:17:18.773Z,18.80
2023-01-21T11:18:18.800Z,20.10
2023-01-21T11:19:18.771Z,19.40
2023-01-21T11:20:21.617Z,18.10
2023-01-21T11:21:18.721Z,18.70
2023-01-21T11:22:18.965Z,19.40
2023-01-21T11:23:18.773Z,19.30
2023-01-21T11:24:18.681Z,20.20
2023-01-21T11:25:18.880Z,19.50
2023-01-21T11:26:18.658Z,18.80
2023-01-21T11:27:18.646Z,19.40
2023-01-21T11:28:18.798Z,19.50
2023-01-21T11:29:18.660Z,19.60
2023-01-21T11:30:37.313Z,19.50
2023-01-21T11:31:19.713Z,19.30
2023-01-21T11:32:18.741Z,19.60
2023-01-21T11:33:18.603Z,19.70
2023-01-21T11:34:18.581Z,18.60
2023-01-21T11:35:18.599Z,19.30
2023-01-21T11:36:18.600Z,18.60
2023-01-21T11:37:18.563Z,18.90
2023-01-21T11:38:18.528Z,18.40
2023-01-21T11:39:18.540Z,19.20
2023-01-21T11:40:20.923Z,19.30
2023-01-21T11:41:18.494Z,19.70
2023-01-21T11:42:18.499Z,19.10
2023-01-21T11:43:18.514Z,17.90
2023-01-21T11:44:18.474Z,19.00
2023-01-21T11:45:18.844Z,19.10
2023-01-21T11:46:18.529Z,19.20
2023-01-21T11:47:18.450Z,17.20
2023-01-21T11:48:18.422Z,17.40
2023-01-21T11:49:18.436Z,17.90
2023-01-21T11:50:18.696Z,18.80
2023-01-21T11:51:18.450Z,19.00
2023-01-21T11:52:18.684Z,18.10
2023-01-21T11:53:18.392Z,19.10
2023-01-21T11:54:18.364Z,19.30
2023-01-21T11:55:18.509Z,21.10
2023-01-21T11:56:18.350Z,18.80
2023-01-21T11:57:18.323Z,19.40
2023-01-21T11:58:18.327Z,19.70
2023-01-21T11:59:18.332Z,20.40
2023-01-21T12:00:18.613Z,19.60
2023-01-21T12:01:18.279Z,21.50
2023-01-21T12:02:18.378Z,20.50
2023-01-21T12:03:18.291Z,20.40
2023-01-21T12:04:18.368Z,21.20
2023-01-21T12:05:18.226Z,21.80
2023-01-21T12:06:18.727Z,20.20
2023-01-21T12:07:18.236Z,20.40
2023-01-21T12:08:18.202Z,20.40
2023-01-21T12:09:18.182Z,20.80
2023-01-21T12:10:18.518Z,20.20
2023-01-21T12:11:18.178Z,18.90
2023-01-21T12:12:18.211Z,19.40
2023-01-21T12:13:18.166Z,18.50
2023-01-21T12:14:18.137Z,19.20
2023-01-21T12:15:18.122Z,17.90
2023-01-21T12:16:18.131Z,19.00
2023-01-21T12:17:18.116Z,18.60
2023-01-21T12:18:18.094Z,18.00
2023-01-21T12:19:18.109Z,18.70
2023-01-21T12:20:18.323Z,18.70
2023-01-21T12:21:18.089Z,17.50
2023-01-21T12:22:18.074Z,18.70
2023-01-21T12:23:18.044Z,20.30
2023-01-21T12:24:18.065Z,18.90
2023-01-21T12:25:18.041Z,20.60
2023-01-21T12:26:18.016Z,20.20
2023-01-21T12:27:18.002Z,20.40
2023-01-21T12:28:17.979Z,20.40
2023-01-21T12:29:19.519Z,20.30
2023-01-21T12:30:18.226Z,21.00
2023-01-21T12:31:18.084Z,20.50
2023-01-21T12:32:17.972Z,20.50
2023-01-21T12:33:17.968Z,20.60
2023-01-21T12:34:18.104Z,20.80
2023-01-21T12:35:18.265Z,19.40
2023-01-21T12:36:17.907Z,19.60
2023-01-21T12:37:17.902Z,20.30
2023-01-21T12:38:17.908Z,20.20
2023-01-21T12:39:17.861Z,20.50
2023-01-21T12:40:18.220Z,20.40
2023-01-21T12:41:18.155Z,20.80
2023-01-21T12:42:17.851Z,21.70
2023-01-21T12:43:17.852Z,21.80
2023-01-21T12:44:17.809Z,21.90
2023-01-21T12:45:18.036Z,21.10
2023-01-21T12:46:17.897Z,21.50
2023-01-21T12:47:17.779Z,22.30
2023-01-21T12:48:17.793Z,22.30
2023-01-21T12:49:17.764Z,21.30
2023-01-21T12:50:17.957Z,20.60
2023-01-21T12:51:17.784Z,20.90
2023-01-21T12:52:17.756Z,20.80